Time;durP1;ratioP1;P1;durP2;ratioP2;P2;SDS_P1;SDS_P2;PMS_P1;PMS_P2;Temp;Humidity;BMP_temperature;BMP_pressure;BME280_temperature;BME280_humidity;BME280_pressure;Samples;Min_cycle;Max_cycle;Signal;HPM_P1;HPM_P2
2021/10/13 00:00:06;;;;;;;10.40;5.03;;;;;;;7.03;100.00;96913.28;4997709;28;20042;-62
2021/10/13 00:02:32;;;;;;;13.48;5.18;;;;;;;7.06;100.00;96904.44;4999533;28;20690;-60
2021/10/13 00:04:57;;;;;;;10.27;4.60;;;;;;;7.11;100.00;96910.78;4999648;28;20041;-61
2021/10/13 00:07:23;;;;;;;13.13;4.88;;;;;;;7.35;100.00;96919.00;4994149;28;20043;-60
2021/10/13 00:09:48;;;;;;;7.82;4.63;;;;;;;7.34;100.00;96920.09;5005031;28;20137;-61
2021/10/13 00:12:14;;;;;;;9.85;4.80;;;;;;;7.45;100.00;96920.47;4973760;28;20077;-59
2021/10/13 00:14:39;;;;;;;10.25;4.82;;;;;;;7.45;100.00;96925.91;4999633;28;20372;-61
2021/10/13 00:17:05;;;;;;;8.88;4.25;;;;;;;7.69;100.00;96924.31;4994834;28;20524;-61
2021/10/13 00:19:31;;;;;;;8.07;3.95;;;;;;;7.84;100.00;96923.63;4998805;28;20152;-61
2021/10/13 00:21:57;;;;;;;7.00;4.40;;;;;;;7.77;100.00;96915.22;5000112;28;20446;-59
2021/10/13 00:24:23;;;;;;;7.70;3.95;;;;;;;7.61;100.00;96924.09;4994565;28;20053;-62
2021/10/13 00:26:49;;;;;;;7.97;4.60;;;;;;;7.45;100.00;96924.00;4997528;28;20100;-62
2021/10/13 00:29:14;;;;;;;6.97;4.65;;;;;;;7.37;100.00;96924.09;4994319;28;20042;-59
2021/10/13 00:31:39;;;;;;;10.38;5.20;;;;;;;7.25;100.00;96927.59;4998050;28;20129;-61
2021/10/13 00:34:05;;;;;;;7.93;4.40;;;;;;;7.31;100.00;96929.00;4991830;28;20042;-61
2021/10/13 00:36:30;;;;;;;8.77;5.10;;;;;;;7.47;100.00;96929.91;4980810;28;20034;-62
2021/10/13 00:38:56;;;;;;;9.23;4.97;;;;;;;7.56;100.00;96935.25;4981629;28;20576;-60
2021/10/13 00:41:21;;;;;;;10.80;5.68;;;;;;;7.68;100.00;96933.63;4992270;28;20046;-61
2021/10/13 00:43:47;;;;;;;10.13;5.38;;;;;;;7.83;100.00;96939.19;5001302;28;20108;-62
2021/10/13 00:46:12;;;;;;;9.50;5.90;;;;;;;7.89;100.00;96936.25;4998276;28;20041;-62
2021/10/13 00:48:37;;;;;;;13.98;6.28;;;;;;;7.89;100.00;96937.03;5001970;28;20045;-62
2021/10/13 00:51:03;;;;;;;11.07;5.25;;;;;;;7.81;100.00;96940.66;4997161;28;20050;-62
2021/10/13 00:53:29;;;;;;;12.48;6.28;;;;;;;7.75;100.00;96945.56;4997450;28;20402;-60
2021/10/13 00:55:56;;;;;;;10.68;6.07;;;;;;;7.78;100.00;96950.34;4998346;28;20042;-58
2021/10/13 00:58:22;;;;;;;10.13;6.32;;;;;;;7.85;100.00;96952.50;4991871;28;20042;-59
2021/10/13 01:00:55;;;;;;;11.02;5.60;;;;;;;7.89;100.00;96958.84;4997585;28;20601;-61
2021/10/13 01:03:48;;;;;;;14.07;6.15;;;;;;;7.88;100.00;96954.50;4991512;28;20038;-61
2021/10/13 01:06:20;;;;;;;9.60;5.47;;;;;;;7.87;100.00;96952.94;4992979;28;20399;-61
2021/10/13 01:09:23;;;;;;;8.23;5.13;;;;;;;7.84;100.00;96959.06;4998908;28;20042;-61
2021/10/13 01:12:30;;;;;;;10.85;5.93;;;;;;;7.77;100.00;96950.66;4978972;28;20042;-61
2021/10/13 01:15:31;;;;;;;8.88;5.50;;;;;;;7.87;100.00;96952.13;4988454;28;20088;-61
2021/10/13 01:18:32;;;;;;;10.38;5.15;;;;;;;7.91;100.00;96945.66;4988920;28;20034;-61
2021/10/13 01:21:07;;;;;;;8.02;4.68;;;;;;;7.79;100.00;96953.84;4985722;28;20088;-62
2021/10/13 01:23:50;;;;;;;8.23;4.82;;;;;;;7.81;100.00;96941.47;5010638;28;20434;-61
2021/10/13 01:26:31;;;;;;;10.68;5.20;;;;;;;7.87;100.00;96933.84;4992952;28;20038;-61
2021/10/13 01:29:02;;;;;;;10.77;4.97;;;;;;;7.90;100.00;96948.72;5011388;28;20402;-60
2021/10/13 01:31:36;;;;;;;12.32;5.72;;;;;;;7.85;100.00;96950.56;4961209;28;20916;-61
2021/10/13 01:34:13;;;;;;;9.93;4.97;;;;;;;7.79;100.00;96943.72;5002282;28;20515;-59
2021/10/13 01:36:43;;;;;;;10.00;4.97;;;;;;;7.71;100.00;96952.84;5000688;28;20046;-62
2021/10/13 01:39:10;;;;;;;8.80;4.55;;;;;;;7.73;100.00;96955.22;5013399;28;20481;-61
2021/10/13 01:41:38;;;;;;;9.25;4.88;;;;;;;7.73;100.00;96950.56;5014587;28;20042;-61
2021/10/13 01:44:08;;;;;;;11.20;5.40;;;;;;;7.83;100.00;96946.56;5000000;28;20050;-64
2021/10/13 01:46:35;;;;;;;9.98;5.30;;;;;;;7.90;100.00;96935.88;4999861;28;20073;-62
2021/10/13 01:49:03;;;;;;;11.23;5.72;;;;;;;7.77;100.00;96948.72;5009825;28;20049;-62
2021/10/13 01:51:31;;;;;;;13.85;5.70;;;;;;;7.55;100.00;96944.53;5015774;28;20051;-62
2021/10/13 01:53:58;;;;;;;9.82;6.00;;;;;;;7.31;100.00;96947.25;5008202;28;20050;-60
2021/10/13 01:56:26;;;;;;;9.82;5.65;;;;;;;7.22;100.00;96955.50;4999618;28;21015;-60
2021/10/13 01:58:56;;;;;;;12.55;6.10;;;;;;;7.12;100.00;96948.59;5007029;28;20050;-61
2021/10/13 02:01:27;;;;;;;10.15;6.32;;;;;;;7.14;100.00;96956.41;4995055;28;20061;-63
2021/10/13 02:03:55;;;;;;;13.13;6.35;;;;;;;7.10;100.00;96963.69;5015036;28;20053;-63
2021/10/13 02:06:23;;;;;;;15.75;6.82;;;;;;;7.16;100.00;96967.78;5018796;28;20037;-61
2021/10/13 02:08:52;;;;;;;14.38;7.15;;;;;;;7.02;100.00;96970.78;5020559;28;20101;-61
2021/10/13 02:11:24;;;;;;;10.10;5.88;;;;;;;6.77;100.00;96969.94;5000351;28;20077;-63
2021/10/13 02:13:51;;;;;;;13.95;6.53;;;;;;;6.72;100.00;96986.47;5040516;28;20045;-62
2021/10/13 02:16:18;;;;;;;13.98;6.32;;;;;;;6.85;100.00;96988.13;5017166;28;20049;-63
2021/10/13 02:18:45;;;;;;;15.70;6.43;;;;;;;7.07;100.00;96997.81;5015774;28;20073;-62
2021/10/13 02:21:13;;;;;;;11.13;6.00;;;;;;;7.22;100.00;96989.03;5015413;28;20614;-62
2021/10/13 02:23:40;;;;;;;12.15;6.05;;;;;;;7.37;100.00;97003.91;5023321;28;20045;-61
2021/10/13 02:26:18;;;;;;;8.75;5.32;;;;;;;7.16;100.00;97001.25;4996738;28;20046;-60
2021/10/13 02:28:49;;;;;;;11.40;5.47;;;;;;;6.85;100.00;97009.91;5007557;28;20041;-60
2021/10/13 02:31:14;;;;;;;11.77;6.13;;;;;;;6.69;100.00;97010.50;5015265;28;20044;-61
2021/10/13 02:33:40;;;;;;;12.45;6.07;;;;;;;6.67;100.00;97012.75;4999428;28;20387;-61
2021/10/13 02:36:06;;;;;;;9.23;5.70;;;;;;;6.67;100.00;97012.75;4996164;28;20586;-60
2021/10/13 02:38:32;;;;;;;10.68;6.03;;;;;;;6.82;100.00;97013.28;5005535;28;20042;-61
2021/10/13 02:40:58;;;;;;;11.65;6.40;;;;;;;6.86;100.00;97008.75;5021060;28;20498;-59
2021/10/13 02:43:24;;;;;;;11.68;6.15;;;;;;;6.95;100.00;97008.66;5017119;28;20906;-61
2021/10/13 02:46:06;;;;;;;8.30;5.80;;;;;;;7.13;100.00;97012.03;5014625;28;20047;-61
2021/10/13 02:48:35;;;;;;;10.68;5.60;;;;;;;7.15;100.00;97020.66;5002222;28;20107;-58
2021/10/13 02:51:13;;;;;;;13.90;5.15;;;;;;;6.99;100.00;97032.19;5009943;28;20048;-60
2021/10/13 02:54:00;;;;;;;15.20;6.30;;;;;;;6.93;100.00;97040.91;5004242;28;20041;-61
2021/10/13 02:56:32;;;;;;;10.38;5.57;;;;;;;6.89;100.00;97029.88;4994294;28;20061;-61
2021/10/13 02:59:07;;;;;;;9.32;5.38;;;;;;;6.79;100.00;97028.38;5010246;28;20049;-61
2021/10/13 03:01:43;;;;;;;9.52;5.50;;;;;;;6.74;100.00;97030.50;4999311;28;20034;-61
2021/10/13 03:04:16;;;;;;;13.38;5.50;;;;;;;6.78;100.00;97029.50;4997435;28;20041;-61
2021/10/13 03:06:49;;;;;;;8.40;5.07;;;;;;;6.75;100.00;97038.31;5004959;28;20048;-61
2021/10/13 03:09:20;;;;;;;7.88;5.25;;;;;;;6.64;100.00;97037.91;5016209;28;20037;-60
2021/10/13 03:11:47;;;;;;;8.43;4.85;;;;;;;6.62;100.00;97036.66;5022199;28;20088;-62
2021/10/13 03:14:14;;;;;;;8.27;4.78;;;;;;;6.69;100.00;97042.38;4997903;28;20053;-62
2021/10/13 03:16:42;;;;;;;7.28;4.38;;;;;;;6.75;100.00;97041.03;5000854;28;20077;-61
2021/10/13 03:19:09;;;;;;;9.43;4.95;;;;;;;6.78;100.00;97037.66;4999019;28;20100;-61
2021/10/13 03:21:35;;;;;;;8.68;4.97;;;;;;;6.78;100.00;97042.31;4997312;28;20045;-63
2021/10/13 03:24:01;;;;;;;7.95;4.97;;;;;;;6.81;100.00;97042.44;5009570;28;20052;-62
2021/10/13 03:26:27;;;;;;;7.18;4.47;;;;;;;6.37;100.00;97047.41;4997002;28;20903;-61
2021/10/13 03:28:52;;;;;;;9.13;4.88;;;;;;;6.30;100.00;97052.56;5006665;28;20476;-62
2021/10/13 03:31:18;;;;;;;7.85;5.00;;;;;;;6.21;100.00;97049.09;4992347;28;20073;-61
2021/10/13 03:33:53;;;;;;;7.63;4.38;;;;;;;5.87;100.00;97046.25;4997653;28;20041;-62
2021/10/13 03:36:18;;;;;;;11.23;4.65;;;;;;;5.76;100.00;97055.84;5003462;28;20060;-61
2021/10/13 03:38:44;;;;;;;8.57;4.88;;;;;;;5.67;100.00;97041.50;4998307;28;20038;-60
2021/10/13 03:41:09;;;;;;;8.82;4.90;;;;;;;5.73;100.00;97048.38;4992723;28;20188;-61
2021/10/13 03:43:34;;;;;;;7.22;4.85;;;;;;;5.96;100.00;97059.00;5002910;28;20056;-59
2021/10/13 03:46:00;;;;;;;7.85;4.88;;;;;;;6.06;100.00;97066.81;5009036;28;20061;-59
2021/10/13 03:48:30;;;;;;;6.28;3.88;;;;;;;6.11;100.00;97063.91;4990695;28;20989;-60
2021/10/13 03:50:55;;;;;;;6.55;4.50;;;;;;;6.14;100.00;97074.13;4992527;28;20042;-60
2021/10/13 03:53:21;;;;;;;8.20;4.82;;;;;;;6.23;100.00;97079.50;4958967;28;20053;-60
2021/10/13 03:55:47;;;;;;;8.07;4.47;;;;;;;6.36;100.00;97081.19;5000827;28;20049;-60
2021/10/13 03:58:12;;;;;;;7.07;4.50;;;;;;;6.47;100.00;97076.16;4997011;28;20314;-60
2021/10/13 04:00:38;;;;;;;6.75;3.72;;;;;;;6.42;100.00;97074.41;5006112;28;20048;-56
2021/10/13 04:03:04;;;;;;;7.53;3.97;;;;;;;6.44;100.00;97079.53;5002485;28;20185;-62
2021/10/13 04:05:30;;;;;;;6.15;3.80;;;;;;;6.17;100.00;97083.53;4984795;28;20128;-62
2021/10/13 04:07:55;;;;;;;17.58;4.38;;;;;;;5.88;100.00;97071.50;4995744;28;20172;-62
2021/10/13 04:10:21;;;;;;;8.52;4.53;;;;;;;5.64;100.00;97075.59;5004105;28;20038;-59
2021/10/13 04:12:46;;;;;;;8.15;4.57;;;;;;;5.43;100.00;97078.19;5004397;28;20041;-60
2021/10/13 04:15:12;;;;;;;11.40;5.35;;;;;;;5.42;100.00;97070.38;4999698;28;20811;-58
2021/10/13 04:17:38;;;;;;;8.18;5.20;;;;;;;5.36;100.00;97064.31;4999889;28;20488;-61
2021/10/13 04:20:08;;;;;;;10.15;5.53;;;;;;;5.28;100.00;97068.66;5002965;28;20077;-62
2021/10/13 04:22:33;;;;;;;7.88;5.28;;;;;;;5.26;100.00;97073.63;4980014;28;20056;-61
2021/10/13 04:24:59;;;;;;;8.85;5.20;;;;;;;5.24;100.00;97070.44;5000713;28;20143;-61
2021/10/13 04:27:25;;;;;;;10.85;6.22;;;;;;;5.20;100.00;97064.03;5003532;28;20041;-60
2021/10/13 04:29:50;;;;;;;9.85;5.68;;;;;;;5.12;100.00;97062.94;5002359;28;20045;-61
2021/10/13 04:32:20;;;;;;;11.18;6.20;;;;;;;5.20;100.00;97071.38;4999949;28;20128;-61
2021/10/13 04:34:46;;;;;;;11.35;6.47;;;;;;;5.13;100.00;97069.16;4997388;28;20046;-61
2021/10/13 04:37:11;;;;;;;47.28;22.00;;;;;;;5.06;100.00;97075.09;5002963;28;20182;-61
2021/10/13 04:39:37;;;;;;;13.30;8.38;;;;;;;5.04;100.00;97087.38;5019643;28;20076;-60
2021/10/13 04:42:02;;;;;;;11.05;7.53;;;;;;;5.02;100.00;97090.41;5004036;28;20469;-62
2021/10/13 04:44:28;;;;;;;15.13;7.10;;;;;;;4.95;100.00;97090.91;5003876;28;20049;-59
2021/10/13 04:46:54;;;;;;;13.90;7.75;;;;;;;5.03;100.00;97096.66;4981732;28;20049;-60
2021/10/13 04:49:19;;;;;;;19.30;8.18;;;;;;;5.15;100.00;97096.81;4985133;28;20511;-61
2021/10/13 04:51:45;;;;;;;11.63;6.93;;;;;;;5.13;100.00;97105.25;4988710;28;20458;-60
2021/10/13 04:54:10;;;;;;;20.42;11.75;;;;;;;5.05;100.00;97105.25;4991801;28;20037;-62
2021/10/13 04:56:37;;;;;;;50.42;25.00;;;;;;;4.85;100.00;97104.00;5008169;28;20034;-64
2021/10/13 04:59:02;;;;;;;15.85;9.63;;;;;;;4.85;100.00;97102.06;4996581;28;20056;-62
2021/10/13 05:04:51;;;;;;;11.60;7.18;;;;;;;4.72;100.00;97111.19;4921803;28;20066;-63
2021/10/13 05:07:17;;;;;;;12.77;7.30;;;;;;;4.56;100.00;97108.91;4991115;28;20046;-61
2021/10/13 05:09:42;;;;;;;13.80;7.63;;;;;;;4.51;100.00;97121.84;4984634;28;20096;-61
2021/10/13 05:12:08;;;;;;;12.63;6.82;;;;;;;4.44;100.00;97132.34;4994241;28;20042;-60
2021/10/13 05:14:33;;;;;;;10.10;6.38;;;;;;;4.48;100.00;97141.44;4979708;28;20046;-61
2021/10/13 05:16:59;;;;;;;12.57;7.40;;;;;;;4.53;100.00;97147.53;4999794;28;20046;-61
2021/10/13 05:19:24;;;;;;;11.95;7.25;;;;;;;4.37;100.00;97155.28;4992053;28;20137;-60
2021/10/13 05:21:50;;;;;;;10.30;7.18;;;;;;;4.27;100.00;97161.03;4998141;28;20113;-61
2021/10/13 05:24:15;;;;;;;10.75;7.40;;;;;;;4.30;100.00;97157.66;4999083;28;20053;-61
2021/10/13 05:26:41;;;;;;;11.65;7.78;;;;;;;4.21;100.00;97162.25;4996622;28;20042;-60
2021/10/13 05:29:06;;;;;;;14.68;8.35;;;;;;;4.32;100.00;97160.06;5002412;28;20052;-60
2021/10/13 05:31:31;;;;;;;12.23;7.45;;;;;;;4.29;100.00;97174.28;5001662;28;20045;-60
2021/10/13 05:33:57;;;;;;;13.63;7.88;;;;;;;4.12;100.00;97177.69;4989009;28;20085;-62
2021/10/13 05:36:22;;;;;;;13.50;7.63;;;;;;;3.94;100.00;97185.78;4992165;28;20624;-61
2021/10/13 05:38:48;;;;;;;12.30;8.00;;;;;;;3.94;100.00;97177.66;4999825;28;20452;-61
2021/10/13 05:41:13;;;;;;;14.73;8.57;;;;;;;4.14;100.00;97178.19;4994414;28;20130;-60
2021/10/13 05:43:39;;;;;;;13.13;8.05;;;;;;;4.19;100.00;97183.47;4999330;28;20038;-61
2021/10/13 05:46:04;;;;;;;14.95;8.77;;;;;;;4.06;100.00;97196.03;4992098;28;20042;-60
2021/10/13 05:48:30;;;;;;;12.30;7.60;;;;;;;4.06;100.00;97195.22;4997037;28;20079;-61
2021/10/13 05:50:55;;;;;;;11.10;7.63;;;;;;;4.02;100.00;97203.19;4998792;28;20069;-56
2021/10/13 05:53:22;;;;;;;12.93;8.00;;;;;;;4.17;100.00;97202.75;4992998;28;20049;-58
2021/10/13 05:55:48;;;;;;;13.10;8.07;;;;;;;4.29;100.00;97215.75;5013703;28;20069;-62
2021/10/13 05:58:16;;;;;;;9.60;6.80;;;;;;;4.26;100.00;97215.56;5006556;28;20060;-60
2021/10/13 06:00:41;;;;;;;12.90;7.40;;;;;;;4.13;100.00;97218.06;4992523;28;20449;-60
2021/10/13 06:03:07;;;;;;;15.65;7.50;;;;;;;4.04;100.00;97224.56;5000184;28;20042;-59
2021/10/13 06:05:32;;;;;;;10.30;6.95;;;;;;;4.05;100.00;97213.38;5001418;28;20040;-61
2021/10/13 06:07:58;;;;;;;12.73;7.53;;;;;;;4.01;100.00;97213.19;5004768;28;20401;-65
2021/10/13 06:10:23;;;;;;;10.68;7.10;;;;;;;3.98;100.00;97221.97;4997808;28;20266;-63
2021/10/13 06:12:48;;;;;;;9.25;6.68;;;;;;;3.93;100.00;97232.94;5012441;28;20521;-61
2021/10/13 06:15:14;;;;;;;10.55;6.45;;;;;;;4.00;100.00;97227.88;4974352;28;20550;-61
2021/10/13 06:17:39;;;;;;;12.95;7.65;;;;;;;3.99;100.00;97230.91;5001440;28;20044;-58
2021/10/13 06:20:06;;;;;;;8.85;6.10;;;;;;;3.90;100.00;97238.97;4978770;28;20088;-62
2021/10/13 06:22:31;;;;;;;9.60;6.43;;;;;;;4.19;100.00;97234.97;4994659;28;20100;-62
2021/10/13 06:24:57;;;;;;;9.18;4.97;;;;;;;4.51;100.00;97236.56;5001310;28;20046;-65
2021/10/13 06:27:23;;;;;;;9.00;4.97;;;;;;;4.79;100.00;97234.41;5002022;28;20137;-62
2021/10/13 06:29:49;;;;;;;7.72;5.10;;;;;;;5.06;100.00;97243.41;5003686;28;20666;-60
2021/10/13 06:32:14;;;;;;;16.70;5.95;;;;;;;5.41;100.00;97239.94;4997577;28;20077;-63
2021/10/13 06:34:40;;;;;;;8.90;6.32;;;;;;;5.95;100.00;97248.50;4984936;28;20046;-62
2021/10/13 06:37:07;;;;;;;15.68;6.93;;;;;;;6.61;100.00;97248.19;4996162;28;20048;-60
2021/10/13 06:39:33;;;;;;;10.00;4.93;;;;;;;7.50;100.00;97252.75;4984586;28;20125;-62
2021/10/13 06:41:58;;;;;;;15.70;5.50;;;;;;;8.40;96.72;97256.69;5002135;28;20561;-62
2021/10/13 06:44:25;;;;;;;9.02;5.63;;;;;;;9.29;90.60;97268.94;4997528;28;20061;-64
2021/10/13 06:46:51;;;;;;;18.40;5.75;;;;;;;9.75;85.42;97266.75;5002996;28;20523;-63
2021/10/13 06:49:16;;;;;;;9.05;4.00;;;;;;;10.04;84.94;97270.28;5004011;28;20041;-62
2021/10/13 06:51:42;;;;;;;8.85;5.05;;;;;;;10.10;83.51;97285.34;5008970;28;20391;-62
2021/10/13 06:54:08;;;;;;;6.65;4.20;;;;;;;10.13;84.28;97278.34;5001418;28;20558;-60
2021/10/13 06:56:34;;;;;;;5.88;4.00;;;;;;;10.68;79.89;97281.41;5002794;28;20057;-62
2021/10/13 06:59:00;;;;;;;6.15;3.50;;;;;;;11.72;75.74;97286.53;5001799;28;20487;-62
2021/10/13 07:01:25;;;;;;;5.35;3.78;;;;;;;12.89;70.17;97291.91;4993165;28;20056;-60
2021/10/13 07:03:51;;;;;;;9.50;3.22;;;;;;;14.08;64.66;97291.66;5003987;28;20050;-63
2021/10/13 07:06:16;;;;;;;4.72;3.22;;;;;;;14.61;61.45;97296.19;5002225;28;20554;-62
2021/10/13 07:08:42;;;;;;;5.45;3.22;;;;;;;15.03;58.87;97285.94;5010990;28;20041;-61
2021/10/13 07:11:09;;;;;;;9.25;5.18;;;;;;;14.99;59.91;97291.41;5000840;28;20101;-62
2021/10/13 07:13:35;;;;;;;5.20;3.55;;;;;;;14.98;59.80;97294.56;4999342;28;20042;-62
2021/10/13 07:16:01;;;;;;;6.50;3.58;;;;;;;15.84;57.15;97306.22;4997514;28;20452;-60
2021/10/13 07:18:26;;;;;;;5.45;3.08;;;;;;;15.45;56.36;97306.75;4997423;28;20062;-63
2021/10/13 07:20:53;;;;;;;9.23;3.40;;;;;;;16.40;56.16;97304.88;5000676;28;20400;-60
2021/10/13 07:23:18;;;;;;;7.18;2.92;;;;;;;16.75;53.34;97297.84;4992144;28;20042;-62
2021/10/13 07:25:45;;;;;;;22.35;9.25;;;;;;;17.12;51.97;97305.00;5014385;28;20044;-62
2021/10/13 07:28:12;;;;;;;6.35;2.53;;;;;;;16.33;52.34;97304.88;5004214;28;20187;-61
2021/10/13 07:30:38;;;;;;;5.80;2.30;;;;;;;15.42;53.69;97304.75;5000457;28;20556;-61
2021/10/13 07:33:07;;;;;;;6.43;2.22;;;;;;;15.23;53.64;97316.81;4994879;28;20125;-64
2021/10/13 07:35:33;;;;;;;3.35;2.13;;;;;;;16.77;51.47;97312.06;4995833;28;20038;-61
2021/10/13 07:37:59;;;;;;;3.42;1.95;;;;;;;16.84;50.04;97307.78;5004027;28;20042;-61
2021/10/13 07:40:25;;;;;;;4.35;2.05;;;;;;;17.63;47.26;97313.25;4994129;28;20042;-61
2021/10/13 07:42:51;;;;;;;4.45;2.33;;;;;;;17.44;45.42;97306.19;5007275;28;20037;-61
2021/10/13 07:45:18;;;;;;;4.15;1.95;;;;;;;17.84;46.39;97318.75;4993876;28;20087;-62
2021/10/13 07:47:44;;;;;;;7.20;2.00;;;;;;;18.03;45.69;97322.31;5008123;28;20549;-61
2021/10/13 07:50:09;;;;;;;6.10;2.30;;;;;;;18.15;44.84;97316.34;4999428;28;20038;-61
2021/10/13 07:52:34;;;;;;;4.15;2.00;;;;;;;18.29;44.16;97323.78;5002431;28;20064;-60
2021/10/13 07:55:00;;;;;;;3.85;1.65;;;;;;;18.27;44.08;97321.41;5002127;28;20043;-60
2021/10/13 07:57:25;;;;;;;4.00;2.25;;;;;;;17.69;44.95;97323.56;5004846;28;20037;-59
2021/10/13 07:59:51;;;;;;;5.07;1.73;;;;;;;17.67;44.77;97322.38;5003627;28;20053;-60
2021/10/13 08:02:16;;;;;;;3.85;2.60;;;;;;;17.06;44.60;97322.41;5000068;28;20038;-60
2021/10/13 08:04:42;;;;;;;31.30;4.88;;;;;;;17.63;48.02;97319.63;5002043;28;20065;-61
2021/10/13 08:07:08;;;;;;;6.10;2.63;;;;;;;17.61;45.82;97323.97;5000614;28;20042;-57
2021/10/13 08:09:33;;;;;;;4.35;2.55;;;;;;;17.58;44.98;97326.34;5007763;28;20057;-62
2021/10/13 08:11:59;;;;;;;5.18;2.53;;;;;;;17.23;46.66;97329.91;5009772;28;20042;-61
2021/10/13 08:14:25;;;;;;;4.03;2.28;;;;;;;16.24;48.90;97332.84;4999019;28;20052;-60
2021/10/13 08:16:50;;;;;;;3.40;2.10;;;;;;;17.17;47.97;97332.28;5005537;28;20046;-62
2021/10/13 08:19:16;;;;;;;5.05;2.17;;;;;;;17.66;46.07;97335.41;5005283;28;20153;-62
2021/10/13 08:21:41;;;;;;;4.82;2.00;;;;;;;17.86;48.04;97337.78;5010143;28;20076;-62
2021/10/13 08:24:06;;;;;;;4.28;1.67;;;;;;;14.61;51.59;97342.28;4994308;28;20140;-61
2021/10/13 08:26:32;;;;;;;5.88;2.17;;;;;;;15.32;50.70;97338.59;5003476;28;20041;-60
2021/10/13 08:28:57;;;;;;;3.25;1.70;;;;;;;14.29;53.40;97334.41;5010618;28;20482;-61
2021/10/13 08:31:23;;;;;;;4.65;1.55;;;;;;;11.82;56.93;97340.06;4997577;28;20223;-60
2021/10/13 08:33:49;;;;;;;2.70;1.48;;;;;;;10.81;61.33;97348.66;5001817;28;20046;-60
2021/10/13 08:36:15;;;;;;;2.88;1.65;;;;;;;10.94;63.81;97343.88;4998907;28;20050;-60
2021/10/13 08:38:40;;;;;;;4.22;1.55;;;;;;;11.93;62.09;97348.53;5004959;28;20045;-61
2021/10/13 08:41:06;;;;;;;3.03;1.50;;;;;;;12.61;58.18;97338.91;5012777;28;20580;-61
2021/10/13 08:43:32;;;;;;;3.20;1.45;;;;;;;10.76;59.52;97345.38;5020595;28;20049;-60
2021/10/13 08:45:58;;;;;;;4.63;1.80;;;;;;;11.32;61.02;97347.94;5004705;28;20398;-60
2021/10/13 08:48:24;;;;;;;2.10;1.13;;;;;;;12.58;57.68;97336.88;4983200;28;20569;-62
2021/10/13 08:50:49;;;;;;;3.88;1.70;;;;;;;13.69;54.95;97347.00;5005044;28;20539;-61
2021/10/13 08:53:20;;;;;;;4.90;1.38;;;;;;;12.19;55.64;97347.91;4989148;28;20046;-62
2021/10/13 08:55:47;;;;;;;4.97;1.80;;;;;;;11.17;59.23;97354.25;4999875;28;20688;-63
2021/10/13 08:58:12;;;;;;;3.42;1.20;;;;;;;10.40;61.64;97347.94;4992968;28;20494;-63
2021/10/13 09:00:39;;;;;;;4.68;2.03;;;;;;;10.05;64.01;97353.22;4981128;28;20076;-60
2021/10/13 09:03:05;;;;;;;13.65;6.20;;;;;;;9.74;66.58;97358.19;4995657;28;20406;-62
2021/10/13 09:05:30;;;;;;;7.10;4.78;;;;;;;10.18;67.35;97357.50;4964153;28;20041;-61
2021/10/13 09:07:58;;;;;;;7.18;3.78;;;;;;;10.44;66.59;97361.75;4997867;28;20069;-61
2021/10/13 09:10:35;;;;;;;6.78;3.47;;;;;;;10.89;64.21;97355.09;4992555;28;20476;-62
2021/10/13 09:13:04;;;;;;;6.68;3.42;;;;;;;10.13;67.94;97358.53;4999472;28;20041;-60
2021/10/13 09:15:31;;;;;;;4.03;2.50;;;;;;;9.25;68.53;97366.41;5003062;28;20344;-63
2021/10/13 09:18:06;;;;;;;7.07;3.85;;;;;;;9.85;69.01;97366.72;5003486;28;20042;-61
2021/10/13 09:20:40;;;;;;;7.70;2.95;;;;;;;9.29;69.38;97363.78;4993949;28;20443;-62
2021/10/13 09:23:09;;;;;;;7.20;3.58;;;;;;;9.55;70.73;97368.91;4996261;28;20034;-61
2021/10/13 09:25:36;;;;;;;9.88;2.90;;;;;;;9.74;68.62;97371.88;4998544;28;20510;-61
2021/10/13 09:28:04;;;;;;;6.68;3.60;;;;;;;9.92;65.11;97368.84;4997227;28;20070;-62
2021/10/13 09:30:31;;;;;;;5.05;3.00;;;;;;;9.97;65.95;97370.56;5000100;28;20095;-62
2021/10/13 09:33:18;;;;;;;5.13;2.58;;;;;;;10.77;63.10;97360.66;4996612;28;20038;-62
2021/10/13 09:35:45;;;;;;;4.63;2.00;;;;;;;11.03;62.42;97365.63;4995451;28;20092;-62
2021/10/13 09:38:22;;;;;;;3.33;2.08;;;;;;;11.14;62.04;97363.94;4986310;28;20062;-63
2021/10/13 09:40:49;;;;;;;5.78;2.13;;;;;;;11.57;60.27;97364.19;5003500;28;20050;-63
2021/10/13 09:43:31;;;;;;;3.40;2.00;;;;;;;11.70;60.77;97359.38;5001294;28;20143;-61
2021/10/13 09:46:10;;;;;;;2.70;1.73;;;;;;;11.62;62.45;97364.69;5008861;28;20525;-60
2021/10/13 09:48:38;;;;;;;6.72;2.30;;;;;;;11.85;61.59;97362.09;4997647;28;20520;-60
2021/10/13 09:51:17;;;;;;;6.38;2.05;;;;;;;11.86;60.97;97355.44;5004216;28;20048;-59
2021/10/13 09:53:43;;;;;;;3.28;1.80;;;;;;;12.11;60.84;97359.91;5022394;28;20045;-59
2021/10/13 09:56:28;;;;;;;6.35;2.22;;;;;;;12.15;60.81;97366.25;5008119;28;20038;-59
2021/10/13 09:59:11;;;;;;;3.22;2.10;;;;;;;11.95;60.24;97358.00;5003826;28;20549;-62
2021/10/13 10:01:37;;;;;;;4.43;2.10;;;;;;;11.77;61.07;97368.56;5002889;28;20065;-60
2021/10/13 10:04:06;;;;;;;5.15;2.17;;;;;;;12.01;60.52;97372.22;5004343;28;20525;-63
2021/10/13 10:06:32;;;;;;;6.22;2.33;;;;;;;11.92;61.42;97368.91;4983552;28;20081;-62
2021/10/13 10:08:59;;;;;;;3.85;1.80;;;;;;;12.03;60.01;97368.00;5001968;28;20045;-61
2021/10/13 10:11:33;;;;;;;5.85;2.85;;;;;;;12.35;60.61;97370.63;5003410;28;20482;-62
2021/10/13 10:14:00;;;;;;;5.18;1.92;;;;;;;12.36;59.28;97358.44;4997396;28;20043;-65
2021/10/13 10:16:30;;;;;;;8.07;2.30;;;;;;;12.59;57.08;97368.72;4981795;28;20065;-62
2021/10/13 10:19:15;;;;;;;5.72;2.20;;;;;;;12.38;58.44;97366.34;4997332;28;20144;-62
2021/10/13 10:21:51;;;;;;;3.38;2.10;;;;;;;12.09;57.08;97368.50;4989628;28;20049;-61
2021/10/13 10:24:35;;;;;;;6.20;1.90;;;;;;;12.36;58.10;97374.94;4991524;28;20106;-61
2021/10/13 10:27:22;;;;;;;4.82;1.63;;;;;;;10.40;62.79;97380.03;4992904;28;20491;-60
2021/10/13 10:29:48;;;;;;;4.95;2.03;;;;;;;9.57;66.64;97383.84;4977156;28;20081;-61
2021/10/13 10:32:18;;;;;;;5.20;2.15;;;;;;;10.13;65.73;97380.41;4993681;28;20513;-59
2021/10/13 10:35:03;;;;;;;4.65;1.88;;;;;;;11.04;62.89;97379.00;4989241;28;20053;-62
2021/10/13 10:38:07;;;;;;;2.92;1.70;;;;;;;11.79;59.86;97376.44;4995058;28;20033;-58
2021/10/13 10:40:34;;;;;;;6.45;2.10;;;;;;;12.16;59.90;97381.59;4996638;28;20140;-60
2021/10/13 10:43:01;;;;;;;5.90;2.25;;;;;;;12.20;58.15;97380.50;4991018;28;20038;-61
2021/10/13 10:45:55;;;;;;;3.72;2.00;;;;;;;12.07;59.68;97386.50;4988748;28;20073;-61
2021/10/13 10:48:23;;;;;;;6.10;2.17;;;;;;;12.18;59.86;97382.81;4985539;28;20039;-61
2021/10/13 10:50:51;;;;;;;5.65;1.90;;;;;;;12.04;62.61;97380.53;4987472;28;20117;-61
2021/10/13 10:53:40;;;;;;;3.80;2.47;;;;;;;11.54;65.75;97379.44;4991227;28;20550;-61
2021/10/13 10:56:09;;;;;;;10.20;3.70;;;;;;;11.53;65.45;97383.31;4983941;28;20026;-61
2021/10/13 10:58:34;;;;;;;11.90;3.60;;;;;;;11.62;64.38;97375.69;4991712;28;20050;-61
2021/10/13 11:01:04;;;;;;;4.72;2.30;;;;;;;11.70;64.41;97379.38;4997051;28;20129;-62
2021/10/13 11:03:41;;;;;;;5.95;3.08;;;;;;;11.13;65.40;97376.09;4997877;28;20042;-61
2021/10/13 11:06:18;;;;;;;2.78;1.95;;;;;;;10.81;68.38;97370.56;4984939;28;20041;-60
2021/10/13 11:09:10;;;;;;;5.53;2.38;;;;;;;10.83;68.29;97370.22;4991672;28;20069;-61
2021/10/13 11:11:39;;;;;;;5.05;2.47;;;;;;;10.88;67.81;97376.25;4990586;28;20034;-62
2021/10/13 11:14:10;;;;;;;3.40;1.95;;;;;;;11.37;65.84;97379.78;4986658;28;20432;-62
2021/10/13 11:16:38;;;;;;;9.02;2.70;;;;;;;11.77;64.42;97376.78;4996641;28;20073;-60
2021/10/13 11:19:16;;;;;;;4.53;1.90;;;;;;;11.77;63.33;97376.78;4992557;28;20118;-62
2021/10/13 11:21:43;;;;;;;5.53;2.67;;;;;;;12.02;62.93;97371.09;4987880;28;20080;-61
2021/10/13 11:24:09;;;;;;;3.80;1.75;;;;;;;12.15;61.27;97371.75;4989610;28;20042;-61
2021/10/13 11:26:35;;;;;;;2.95;1.95;;;;;;;12.01;61.64;97370.31;4992637;28;20129;-62
2021/10/13 11:29:00;;;;;;;3.38;1.75;;;;;;;12.05;61.61;97356.66;4994110;28;20382;-60
2021/10/13 11:31:26;;;;;;;6.57;2.78;;;;;;;11.77;62.30;97368.56;4994531;28;20065;-62
2021/10/13 11:34:06;;;;;;;3.50;1.90;;;;;;;12.01;62.38;97355.75;4992866;28;20628;-61
2021/10/13 11:36:32;;;;;;;4.75;1.95;;;;;;;11.71;62.92;97363.72;4984061;28;20085;-60
2021/10/13 11:38:58;;;;;;;5.07;2.22;;;;;;;11.96;62.27;97364.31;4991747;28;20079;-61
2021/10/13 11:41:23;;;;;;;9.20;4.13;;;;;;;12.43;60.18;97358.59;4981648;28;20678;-58